createdAt,value
2018-09-05T00:00:57.072Z,21.03
2018-09-05T00:03:25.914Z,20.80
2018-09-05T00:05:54.690Z,23.47
2018-09-05T00:08:23.493Z,23.20
2018-09-05T00:10:52.270Z,22.53
2018-09-05T00:13:21.006Z,22.40
2018-09-05T00:15:49.869Z,21.80
2018-09-05T00:18:18.654Z,22.03
2018-09-05T00:20:47.435Z,21.70
2018-09-05T00:23:16.218Z,23.90
2018-09-05T00:25:45.001Z,23.57
2018-09-05T00:28:13.810Z,22.63
2018-09-05T00:30:42.693Z,23.70
2018-09-05T00:33:11.619Z,23.63
2018-09-05T00:35:40.454Z,24.10
2018-09-05T00:38:09.270Z,23.73
2018-09-05T00:40:38.185Z,23.23
2018-09-05T00:43:07.083Z,24.37
2018-09-05T00:45:35.854Z,25.37
2018-09-05T00:48:04.773Z,22.47
2018-09-05T00:50:33.543Z,24.20
2018-09-05T00:53:02.363Z,26.63
2018-09-05T00:55:31.157Z,24.60
2018-09-05T00:57:59.937Z,25.23
2018-09-05T01:00:28.741Z,25.80
2018-09-05T01:02:57.566Z,24.20
2018-09-05T01:05:26.349Z,24.90
2018-09-05T01:08:12.086Z,24.93
2018-09-05T01:10:40.913Z,24.67
2018-09-05T01:13:10.370Z,25.50
2018-09-05T01:15:40.214Z,24.33
2018-09-05T01:18:08.943Z,25.40
2018-09-05T01:20:37.780Z,25.00
2018-09-05T01:23:06.550Z,24.27
2018-09-05T01:25:35.422Z,25.13
2018-09-05T01:28:04.343Z,25.20
2018-09-05T01:30:33.030Z,25.30
2018-09-05T01:33:01.872Z,25.23
2018-09-05T01:35:30.697Z,25.43
2018-09-05T01:37:59.531Z,25.43
2018-09-05T01:40:28.363Z,25.80
2018-09-05T01:42:57.396Z,26.50
2018-09-05T01:45:26.301Z,27.63
2018-09-05T01:47:55.591Z,25.97
2018-09-05T01:50:29.645Z,26.80
2018-09-05T01:52:58.465Z,26.87
2018-09-05T01:55:27.903Z,26.30
2018-09-05T01:57:56.873Z,26.70
2018-09-05T02:00:30.674Z,26.73
2018-09-05T02:02:59.742Z,27.10
2018-09-05T02:05:28.613Z,26.87
2018-09-05T02:07:57.413Z,26.37
2018-09-05T02:10:26.165Z,26.27
2018-09-05T02:12:55.018Z,25.90
2018-09-05T02:15:23.852Z,26.60
2018-09-05T02:17:52.921Z,25.13
2018-09-05T02:20:21.764Z,25.63
2018-09-05T02:22:50.682Z,27.13
2018-09-05T02:25:19.520Z,26.03
2018-09-05T02:27:48.310Z,24.77
2018-09-05T02:30:17.176Z,26.13
2018-09-05T02:32:46.004Z,27.07
2018-09-05T02:35:15.249Z,25.67
2018-09-05T02:37:44.261Z,25.13
2018-09-05T02:40:13.262Z,25.63
2018-09-05T02:42:42.027Z,27.90
2018-09-05T03:02:25.788Z,27.07
2018-09-05T03:04:54.839Z,26.37
2018-09-05T03:07:23.566Z,25.93
2018-09-05T03:09:52.421Z,26.57
2018-09-05T03:12:22.161Z,28.07
2018-09-05T03:14:52.402Z,27.83
2018-09-05T03:17:21.778Z,27.33
2018-09-05T03:19:50.581Z,27.30
2018-09-05T03:22:19.353Z,29.70
2018-09-05T03:24:48.217Z,29.27
2018-09-05T03:27:17.018Z,28.83
2018-09-05T03:29:45.864Z,28.30
2018-09-05T03:32:14.825Z,31.60
2018-09-05T03:34:43.606Z,28.13
2018-09-05T03:37:12.400Z,27.20
2018-09-05T03:39:41.197Z,27.87
2018-09-05T03:42:10.050Z,26.43
2018-09-05T03:44:38.843Z,27.17
2018-09-05T03:47:07.646Z,26.67
2018-09-05T03:49:36.463Z,26.93
2018-09-05T03:52:05.289Z,25.27
2018-09-05T03:54:34.103Z,26.17
2018-09-05T03:57:03.011Z,25.67
2018-09-05T03:59:31.901Z,24.77
2018-09-05T04:02:00.946Z,24.80
2018-09-05T04:04:29.737Z,26.37
2018-09-05T04:06:58.542Z,25.40
2018-09-05T04:09:27.567Z,25.07
2018-09-05T04:11:56.489Z,24.90
2018-09-05T04:14:25.392Z,24.80
2018-09-05T04:16:54.282Z,26.10
2018-09-05T04:19:23.231Z,26.17
2018-09-05T04:21:52.727Z,25.63
2018-09-05T04:24:21.705Z,25.70
2018-09-05T04:26:50.506Z,24.77
2018-09-05T04:29:19.385Z,25.80
2018-09-05T04:31:48.222Z,23.80
2018-09-05T04:34:17.161Z,25.13
2018-09-05T04:36:45.918Z,25.53
2018-09-05T04:39:14.808Z,24.57
2018-09-05T04:41:43.601Z,25.97
2018-09-05T04:44:12.373Z,25.27
2018-09-05T04:46:41.122Z,24.70
2018-09-05T04:51:46.317Z,24.93
2018-09-05T04:54:15.209Z,23.67
2018-09-05T04:56:44.160Z,24.73
2018-09-05T04:59:12.974Z,25.00
2018-09-05T05:01:41.766Z,28.37
2018-09-05T05:04:10.641Z,26.30
2018-09-05T05:06:39.595Z,26.10
2018-09-05T05:09:11.906Z,25.97
2018-09-05T05:11:42.020Z,26.40
2018-09-05T05:14:11.296Z,26.40
2018-09-05T05:16:40.056Z,25.40
2018-09-05T05:19:08.928Z,24.70
2018-09-05T05:21:37.874Z,25.43
2018-09-05T05:24:06.751Z,24.47
2018-09-05T05:26:35.478Z,24.37
2018-09-05T05:29:04.107Z,24.53
2018-09-05T05:31:32.852Z,23.97
2018-09-05T05:34:01.473Z,24.13
2018-09-05T05:36:30.212Z,24.60
2018-09-05T05:38:58.889Z,23.63
2018-09-05T05:41:27.773Z,23.13
2018-09-05T05:43:56.357Z,24.03
2018-09-05T05:46:24.946Z,24.87
2018-09-05T05:48:53.337Z,24.93
2018-09-05T05:51:21.793Z,24.73
2018-09-05T05:53:50.202Z,24.50
2018-09-05T05:56:18.660Z,23.80
2018-09-05T05:58:47.141Z,23.77
2018-09-05T06:01:15.664Z,24.00
2018-09-05T06:03:44.915Z,25.10
2018-09-05T06:06:14.203Z,24.67
2018-09-05T06:08:55.235Z,24.90
2018-09-05T06:11:23.935Z,25.20
2018-09-05T06:13:52.572Z,23.93
2018-09-05T06:16:21.283Z,24.67
2018-09-05T06:18:49.973Z,24.57
2018-09-05T06:21:18.629Z,23.73
2018-09-05T06:23:47.241Z,24.40
2018-09-05T06:26:15.897Z,24.43
2018-09-05T06:28:44.497Z,25.70
2018-09-05T06:31:13.296Z,25.60
2018-09-05T06:33:41.810Z,25.50
2018-09-05T06:36:10.477Z,24.37
2018-09-05T06:38:39.076Z,24.77
2018-09-05T06:41:07.871Z,24.17
2018-09-05T06:43:36.534Z,24.93
2018-09-05T06:46:05.271Z,26.57
2018-09-05T06:48:34.031Z,25.93
2018-09-05T06:51:05.895Z,24.73
2018-09-05T06:53:36.675Z,25.57
2018-09-05T06:56:05.507Z,25.60
2018-09-05T06:58:34.566Z,24.90
2018-09-05T07:01:03.341Z,25.60
2018-09-05T07:03:38.534Z,25.63
2018-09-05T07:06:07.029Z,24.83
2018-09-05T07:08:35.449Z,23.90
2018-09-05T07:11:03.865Z,24.63
2018-09-05T07:13:32.382Z,25.83
2018-09-05T07:16:00.852Z,26.27
2018-09-05T07:18:29.445Z,26.23
2018-09-05T07:21:05.681Z,27.53
2018-09-05T07:23:26.513Z,26.87
2018-09-05T07:25:54.939Z,26.93
2018-09-05T07:28:23.447Z,25.53
2018-09-05T07:30:51.853Z,27.23
2018-09-05T07:33:20.304Z,25.10
2018-09-05T07:35:48.713Z,26.17
2018-09-05T07:38:17.173Z,25.93
2018-09-05T07:40:45.594Z,25.60
2018-09-05T07:43:14.041Z,26.80
2018-09-05T07:45:42.505Z,26.27
2018-09-05T07:48:10.978Z,24.07
2018-09-05T07:50:39.457Z,24.97
2018-09-05T07:53:07.881Z,26.20
2018-09-05T07:55:36.301Z,27.30
2018-09-05T07:58:04.993Z,26.90
2018-09-05T08:00:33.444Z,27.03
2018-09-05T08:03:01.956Z,26.73
2018-09-05T08:05:30.417Z,25.70
2018-09-05T08:07:58.907Z,24.90
2018-09-05T08:10:27.377Z,26.40
2018-09-05T08:12:55.829Z,25.90
2018-09-05T08:15:24.264Z,24.67
2018-09-05T08:17:52.713Z,24.93
2018-09-05T08:20:21.259Z,26.60
2018-09-05T08:22:49.707Z,24.63
2018-09-05T08:25:18.166Z,25.63
2018-09-05T08:27:46.661Z,25.80
2018-09-05T08:30:15.088Z,24.27
2018-09-05T08:32:43.566Z,23.67
2018-09-05T08:35:12.247Z,23.00
2018-09-05T08:37:40.650Z,20.60
2018-09-05T08:40:08.975Z,22.17
2018-09-05T08:42:38.054Z,22.20
2018-09-05T08:45:07.300Z,22.57
2018-09-05T08:47:35.626Z,21.47
2018-09-05T08:50:04.106Z,21.00
2018-09-05T08:52:32.495Z,20.23
2018-09-05T08:55:01.110Z,19.87
2018-09-05T08:57:29.554Z,21.37
2018-09-05T08:59:58.031Z,21.10
2018-09-05T09:02:26.514Z,20.50
2018-09-05T09:04:54.987Z,21.70
2018-09-05T09:07:28.622Z,20.70
2018-09-05T09:09:57.156Z,19.13
2018-09-05T09:12:25.730Z,18.50
2018-09-05T09:14:57.154Z,17.77
2018-09-05T09:17:25.565Z,15.87
2018-09-05T09:19:54.009Z,17.23
2018-09-05T09:22:22.409Z,18.80
2018-09-05T09:24:50.937Z,18.33
2018-09-05T09:27:19.409Z,18.93
2018-09-05T09:29:47.926Z,13.73
2018-09-05T09:32:16.374Z,15.63
2018-09-05T09:34:44.802Z,18.70
2018-09-05T09:37:13.322Z,15.20
2018-09-05T09:39:41.771Z,15.33
2018-09-05T09:42:10.181Z,16.93
2018-09-05T09:44:38.647Z,15.13
2018-09-05T09:47:07.128Z,13.87
2018-09-05T09:49:35.585Z,13.17
2018-09-05T09:52:09.368Z,14.30
2018-09-05T09:54:37.896Z,14.33
2018-09-05T09:57:06.309Z,12.27
2018-09-05T09:59:34.802Z,10.93
2018-09-05T10:02:08.378Z,11.30
2018-09-05T10:04:42.210Z,12.23
2018-09-05T10:07:15.810Z,12.65
2018-09-05T10:09:49.573Z,12.60
2018-09-05T10:12:23.098Z,13.45
2018-09-05T10:14:58.574Z,13.88
2018-09-05T10:17:31.125Z,12.82
2018-09-05T10:20:00.514Z,12.63
2018-09-05T10:22:29.826Z,12.43
2018-09-05T10:24:58.376Z,13.68
2018-09-05T10:27:27.686Z,13.48
2018-09-05T10:29:56.548Z,13.18
2018-09-05T10:32:25.589Z,14.25
2018-09-05T10:34:54.844Z,13.72
2018-09-05T10:37:23.261Z,14.13
2018-09-05T10:39:51.734Z,12.53
2018-09-05T10:42:20.240Z,13.83
2018-09-05T10:44:48.681Z,13.83
2018-09-05T10:47:17.169Z,13.08
2018-09-05T10:49:45.613Z,13.68
2018-09-05T10:52:14.031Z,13.38
2018-09-05T10:54:42.478Z,12.93
2018-09-05T10:57:10.923Z,13.07
2018-09-05T10:59:39.417Z,13.47
2018-09-05T11:02:07.896Z,12.17
2018-09-05T11:04:36.370Z,12.80
2018-09-05T11:07:04.919Z,12.80
2018-09-05T11:09:33.386Z,13.83
2018-09-05T11:12:01.867Z,13.07
2018-09-05T11:14:30.289Z,12.85
2018-09-05T11:16:58.778Z,11.53
2018-09-05T11:19:27.261Z,12.95
2018-09-05T11:21:55.666Z,11.78
2018-09-05T11:24:24.157Z,11.78
2018-09-05T11:26:52.584Z,11.63
2018-09-05T11:29:20.997Z,11.43
2018-09-05T11:31:49.434Z,11.05
2018-09-05T11:34:17.877Z,10.85
2018-09-05T11:36:46.286Z,12.93
2018-09-05T11:39:15.079Z,11.53
2018-09-05T11:41:43.535Z,11.85
2018-09-05T11:44:11.976Z,11.50
2018-09-05T11:46:40.408Z,11.22
2018-09-05T11:49:09.591Z,11.73
2018-09-05T11:51:38.205Z,10.43
2018-09-05T11:54:07.239Z,9.85
2018-09-05T11:56:35.699Z,11.53
2018-09-05T11:59:04.221Z,11.33
2018-09-05T12:01:32.675Z,11.20
2018-09-05T12:04:01.171Z,12.30
2018-09-05T12:06:29.605Z,11.83
2018-09-05T12:08:58.041Z,11.22
2018-09-05T12:11:26.485Z,10.38
2018-09-05T12:13:54.902Z,11.00
2018-09-05T12:16:23.354Z,11.68
2018-09-05T12:18:51.878Z,13.00
2018-09-05T12:21:20.347Z,11.03
2018-09-05T12:23:48.788Z,10.65
2018-09-05T12:26:17.238Z,11.30
2018-09-05T12:28:45.661Z,9.93
2018-09-05T12:31:14.141Z,10.58
2018-09-05T12:33:42.568Z,12.47
2018-09-05T12:36:11.000Z,12.03
2018-09-05T12:38:39.434Z,12.83
2018-09-05T12:41:07.931Z,13.05
2018-09-05T12:43:36.326Z,11.83
2018-09-05T12:46:05.085Z,11.93
2018-09-05T12:48:33.481Z,13.78
2018-09-05T12:51:01.965Z,12.82
2018-09-05T12:53:30.409Z,11.97
2018-09-05T12:55:58.867Z,13.45
2018-09-05T12:58:27.342Z,12.05
2018-09-05T13:00:55.830Z,14.53
2018-09-05T13:03:24.249Z,14.47
2018-09-05T13:05:52.700Z,13.32
2018-09-05T13:08:21.139Z,15.08
2018-09-05T13:10:49.575Z,15.30
2018-09-05T13:13:17.967Z,14.85
2018-09-05T13:15:46.444Z,14.55
2018-09-05T13:18:14.871Z,14.07
2018-09-05T13:20:43.309Z,12.45
2018-09-05T13:23:11.870Z,12.50
2018-09-05T13:25:40.346Z,12.28
2018-09-05T13:28:08.859Z,13.15
2018-09-05T13:30:37.289Z,12.13
2018-09-05T13:33:05.739Z,11.78
2018-09-05T13:35:34.398Z,12.50
2018-09-05T13:38:09.355Z,12.25
2018-09-05T13:40:37.849Z,12.35
2018-09-05T13:43:06.286Z,10.80
2018-09-05T13:45:34.745Z,11.25
2018-09-05T13:48:03.205Z,10.68
2018-09-05T13:50:31.710Z,11.30
2018-09-05T13:53:00.103Z,9.95
2018-09-05T13:55:28.546Z,10.35
2018-09-05T13:57:56.959Z,10.65
2018-09-05T14:00:25.442Z,10.68
2018-09-05T14:02:53.979Z,10.72
2018-09-05T14:05:22.313Z,9.85
2018-09-05T14:07:50.758Z,10.30
2018-09-05T14:10:19.199Z,10.70
2018-09-05T14:12:48.712Z,10.55
2018-09-05T14:15:17.197Z,12.30
2018-09-05T14:17:45.642Z,13.22
2018-09-05T14:20:14.157Z,12.75
2018-09-05T14:22:43.282Z,10.63
2018-09-05T14:25:11.773Z,10.82
2018-09-05T14:27:40.255Z,10.28
2018-09-05T14:30:08.769Z,10.48
2018-09-05T14:32:37.217Z,11.53
2018-09-05T14:35:05.810Z,10.40
2018-09-05T14:37:34.297Z,10.35
2018-09-05T14:40:02.802Z,11.22
2018-09-05T14:42:31.304Z,11.22
2018-09-05T14:44:59.722Z,11.08
2018-09-05T14:47:28.149Z,11.75
2018-09-05T14:49:56.825Z,11.93
2018-09-05T14:52:25.279Z,11.22
2018-09-05T14:54:53.795Z,11.18
2018-09-05T14:57:22.305Z,11.57
2018-09-05T14:59:50.784Z,11.40
2018-09-05T15:02:20.096Z,11.65
2018-09-05T15:04:48.589Z,13.00
2018-09-05T15:07:17.376Z,12.75
2018-09-05T15:09:45.819Z,12.35
2018-09-05T15:12:14.254Z,12.18
2018-09-05T15:14:43.213Z,12.15
2018-09-05T15:17:11.646Z,11.37
2018-09-05T15:19:40.080Z,12.20
2018-09-05T15:22:08.586Z,12.23
2018-09-05T15:24:36.992Z,11.57
2018-09-05T15:27:05.679Z,12.90
2018-09-05T15:29:34.139Z,12.67
2018-09-05T15:32:02.596Z,11.57
2018-09-05T15:34:31.041Z,12.70
2018-09-05T15:36:59.466Z,11.63
2018-09-05T15:39:27.973Z,12.03
2018-09-05T15:41:56.357Z,11.47
2018-09-05T15:44:24.790Z,11.10
2018-09-05T15:46:53.298Z,11.77
2018-09-05T15:49:21.762Z,11.10
2018-09-05T15:51:54.585Z,11.60
2018-09-05T15:54:23.735Z,11.10
2018-09-05T15:56:52.546Z,12.13
2018-09-05T15:59:21.309Z,11.70
2018-09-05T16:01:49.788Z,11.73
2018-09-05T16:04:18.302Z,12.77
2018-09-05T16:06:46.854Z,12.13
2018-09-05T16:09:15.329Z,12.27
2018-09-05T16:11:43.796Z,13.50
2018-09-05T16:14:12.250Z,15.40
2018-09-05T16:16:40.709Z,15.27
2018-09-05T16:19:09.189Z,14.27
2018-09-05T16:21:38.294Z,15.60
2018-09-05T16:24:06.778Z,16.90
2018-09-05T16:26:35.231Z,17.70
2018-09-05T16:29:03.832Z,17.27
2018-09-05T16:31:32.267Z,18.23
2018-09-05T16:34:00.809Z,17.60
2018-09-05T16:36:29.350Z,18.47
2018-09-05T16:38:57.839Z,18.13
2018-09-05T16:41:26.388Z,16.90
2018-09-05T16:43:54.937Z,17.17
2018-09-05T16:46:23.436Z,17.47
2018-09-05T16:48:51.976Z,17.53
2018-09-05T16:51:20.460Z,17.77
2018-09-05T16:53:48.918Z,18.73
2018-09-05T16:56:17.412Z,19.63
2018-09-05T16:58:45.885Z,20.53
2018-09-05T17:01:14.325Z,21.30
2018-09-05T17:03:42.780Z,18.60
2018-09-05T17:06:11.285Z,18.23
2018-09-05T17:08:39.744Z,16.73
2018-09-05T17:11:08.339Z,16.53
2018-09-05T17:13:36.790Z,16.27
2018-09-05T17:16:05.254Z,18.07
2018-09-05T17:18:33.772Z,17.60
2018-09-05T17:21:02.246Z,17.77
2018-09-05T17:23:30.770Z,17.80
2018-09-05T17:25:59.244Z,17.87
2018-09-05T17:28:27.817Z,16.80
2018-09-05T17:30:56.217Z,16.37
2018-09-05T17:33:24.989Z,16.77
2018-09-05T17:35:53.438Z,15.33
2018-09-05T17:38:21.944Z,14.77
2018-09-05T17:40:50.434Z,17.10
2018-09-05T17:43:18.898Z,16.60
2018-09-05T17:45:47.541Z,17.17
2018-09-05T17:48:16.038Z,17.37
2018-09-05T17:50:44.495Z,17.53
2018-09-05T17:53:12.941Z,17.57
2018-09-05T17:55:41.456Z,15.30
2018-09-05T17:58:09.955Z,15.13
2018-09-05T18:00:38.465Z,16.17
2018-09-05T18:03:07.062Z,16.07
2018-09-05T18:05:35.617Z,14.40
2018-09-05T18:08:04.124Z,17.03
2018-09-05T18:10:32.790Z,15.50
2018-09-05T18:13:01.745Z,14.00
2018-09-05T18:15:30.241Z,15.23
2018-09-05T18:17:58.890Z,14.13
2018-09-05T18:20:27.446Z,11.93
2018-09-05T18:22:55.926Z,12.20
2018-09-05T18:25:24.369Z,11.77
2018-09-05T18:27:52.841Z,12.13
2018-09-05T18:30:21.324Z,12.13
2018-09-05T18:32:49.794Z,12.00
2018-09-05T18:35:18.335Z,12.37
2018-09-05T18:37:46.750Z,12.93
2018-09-05T18:40:15.278Z,12.40
2018-09-05T18:42:43.721Z,13.23
2018-09-05T18:45:12.209Z,13.73
2018-09-05T18:47:40.661Z,14.90
2018-09-05T18:50:09.179Z,16.00
2018-09-05T18:52:37.621Z,15.10
2018-09-05T18:55:06.188Z,14.27
2018-09-05T18:57:34.652Z,12.73
2018-09-05T19:00:03.191Z,12.37
2018-09-05T19:02:31.673Z,13.23
2018-09-05T19:05:00.328Z,13.83
2018-09-05T19:07:28.774Z,12.30
2018-09-05T19:09:57.242Z,10.33
2018-09-05T19:12:25.892Z,10.43
2018-09-05T19:17:48.046Z,9.43
2018-09-05T19:20:16.502Z,9.37
2018-09-05T19:22:44.951Z,9.97
2018-09-05T19:25:13.401Z,9.87
2018-09-05T19:27:41.940Z,10.10
2018-09-05T19:30:10.419Z,9.97
2018-09-05T19:32:38.897Z,10.53
2018-09-05T19:35:07.409Z,10.17
2018-09-05T19:37:36.633Z,10.70
2018-09-05T19:40:05.130Z,10.80
2018-09-05T19:42:33.850Z,10.97
2018-09-05T19:45:02.329Z,11.00
2018-09-05T19:47:30.905Z,10.17
2018-09-05T19:49:59.501Z,11.53
2018-09-05T19:52:27.986Z,10.90
2018-09-05T19:54:56.592Z,10.90
2018-09-05T19:57:25.044Z,10.53
2018-09-05T19:59:59.195Z,11.17
2018-09-05T20:02:27.838Z,10.30
2018-09-05T20:04:56.455Z,11.50
2018-09-05T20:07:24.992Z,11.23
2018-09-05T20:09:53.458Z,10.83
2018-09-05T20:12:21.881Z,11.03
2018-09-05T20:14:50.338Z,11.47
2018-09-05T20:17:19.639Z,11.43
2018-09-05T20:19:48.212Z,11.37
2018-09-05T20:22:16.641Z,11.97
2018-09-05T20:24:45.177Z,12.47
2018-09-05T20:27:13.699Z,11.77
2018-09-05T20:29:42.168Z,12.33
2018-09-05T20:32:10.604Z,13.17
2018-09-05T20:34:39.066Z,12.97
2018-09-05T20:37:07.653Z,13.20
2018-09-05T20:39:36.133Z,14.47
2018-09-05T20:42:04.665Z,13.60
2018-09-05T20:44:36.467Z,14.27
2018-09-05T20:47:05.120Z,14.40
2018-09-05T20:49:33.670Z,14.23
2018-09-05T20:52:02.129Z,14.10
2018-09-05T20:54:30.643Z,15.17
2018-09-05T20:57:05.504Z,15.43
2018-09-05T20:59:34.009Z,15.20
2018-09-05T21:02:02.514Z,15.97
2018-09-05T21:04:36.620Z,15.30
2018-09-05T21:07:05.282Z,15.63
2018-09-05T21:09:33.748Z,16.73
2018-09-05T21:12:02.236Z,16.37
2018-09-05T21:14:30.697Z,16.80
2018-09-05T21:16:59.164Z,17.50
2018-09-05T21:19:27.599Z,18.60
2018-09-05T21:21:56.049Z,17.73
2018-09-05T21:24:24.672Z,19.13
2018-09-05T21:26:53.191Z,17.27
2018-09-05T21:29:21.618Z,17.37
2018-09-05T21:31:50.081Z,16.50
2018-09-05T21:34:18.495Z,16.53
2018-09-05T21:36:46.973Z,17.07
2018-09-05T21:39:15.425Z,16.87
2018-09-05T21:41:43.905Z,14.93
2018-09-05T21:44:12.406Z,14.27
2018-09-05T21:46:40.862Z,17.63
2018-09-05T21:49:09.337Z,18.83
2018-09-05T21:51:37.791Z,18.63
2018-09-05T21:54:06.226Z,20.40
2018-09-05T21:56:34.715Z,20.83
2018-09-05T21:59:03.246Z,22.53
2018-09-05T22:01:31.711Z,26.37
2018-09-05T22:04:00.150Z,27.43
2018-09-05T22:06:28.562Z,30.17
2018-09-05T22:08:57.037Z,31.07
2018-09-05T22:11:26.530Z,29.80
2018-09-05T22:13:55.742Z,30.77
2018-09-05T22:16:24.190Z,31.60
2018-09-05T22:18:52.721Z,31.57
2018-09-05T22:21:21.181Z,32.07
2018-09-05T22:23:49.574Z,31.27
2018-09-05T22:26:18.050Z,34.83
2018-09-05T22:28:46.502Z,32.50
2018-09-05T22:31:14.922Z,34.83
2018-09-05T22:33:43.335Z,37.23
2018-09-05T22:36:11.829Z,37.63
2018-09-05T22:38:40.257Z,38.17
2018-09-05T22:41:08.679Z,40.10
2018-09-05T22:43:48.599Z,39.87
2018-09-05T22:46:29.467Z,40.73
2018-09-05T22:49:11.967Z,43.77
2018-09-05T22:51:56.515Z,41.67
2018-09-05T22:54:48.181Z,45.97
2018-09-05T22:57:39.666Z,44.20
2018-09-05T23:00:35.862Z,45.80
2018-09-05T23:07:27.162Z,44.87
2018-09-05T23:10:06.778Z,46.20
2018-09-05T23:12:46.306Z,48.27
2018-09-05T23:15:26.095Z,47.80
2018-09-05T23:20:12.731Z,48.13
2018-09-05T23:22:52.364Z,48.67
2018-09-05T23:25:20.784Z,47.97
2018-09-05T23:27:49.230Z,48.33
2018-09-05T23:30:17.705Z,46.87
2018-09-05T23:32:46.174Z,46.73
2018-09-05T23:35:14.606Z,45.97
2018-09-05T23:37:43.317Z,48.50
2018-09-05T23:40:11.762Z,48.30
2018-09-05T23:42:40.202Z,49.00
2018-09-05T23:45:08.718Z,47.07
2018-09-05T23:47:37.180Z,48.60
2018-09-05T23:50:05.692Z,47.40
2018-09-05T23:52:34.163Z,46.70
2018-09-05T23:55:02.598Z,48.27
2018-09-05T23:57:31.087Z,50.33
2018-09-05T23:59:59.548Z,53.80
